createdAt,value
2018-07-12T00:00:24.422Z,0
2018-07-12T00:01:32.483Z,0
2018-07-12T00:02:40.547Z,0
2018-07-12T00:03:48.601Z,0
2018-07-12T00:04:56.673Z,0
2018-07-12T00:06:04.720Z,0
2018-07-12T00:07:12.790Z,0
2018-07-12T00:08:20.860Z,0
2018-07-12T00:09:28.916Z,0
2018-07-12T00:10:36.972Z,0
2018-07-12T00:11:45.045Z,0
2018-07-12T00:12:53.110Z,0
2018-07-12T00:14:01.160Z,0
2018-07-12T00:15:09.233Z,0
2018-07-12T00:16:17.294Z,0
2018-07-12T00:17:25.347Z,0
2018-07-12T00:18:33.391Z,0
2018-07-12T00:19:41.490Z,0
2018-07-12T00:20:49.538Z,0
2018-07-12T00:21:57.605Z,0
2018-07-12T00:23:05.663Z,0
2018-07-12T00:24:13.705Z,0
2018-07-12T00:25:21.784Z,0
2018-07-12T00:26:29.856Z,0
2018-07-12T00:27:37.916Z,0
2018-07-12T00:28:45.970Z,0
2018-07-12T00:29:54.010Z,0
2018-07-12T00:31:02.102Z,0
2018-07-12T00:32:10.157Z,0
2018-07-12T00:33:18.232Z,0
2018-07-12T00:34:26.285Z,0
2018-07-12T00:35:34.337Z,0
2018-07-12T00:36:42.419Z,0
2018-07-12T00:37:50.471Z,0
2018-07-12T00:38:58.545Z,0
2018-07-12T00:40:06.612Z,0
2018-07-12T00:41:14.660Z,0
2018-07-12T00:42:22.728Z,0
2018-07-12T00:43:30.775Z,0
2018-07-12T00:44:38.851Z,0
2018-07-12T00:45:46.907Z,0
2018-07-12T00:46:54.967Z,0
2018-07-12T00:48:03.045Z,0
2018-07-12T00:49:11.099Z,0
2018-07-12T00:50:19.149Z,0
2018-07-12T00:51:27.237Z,0
2018-07-12T00:52:35.298Z,0
2018-07-12T00:53:43.334Z,0
2018-07-12T00:54:51.402Z,0
2018-07-12T00:55:59.476Z,0
2018-07-12T00:57:07.542Z,0
2018-07-12T00:58:15.604Z,0
2018-07-12T00:59:23.625Z,0
2018-07-12T01:00:31.724Z,0
2018-07-12T01:01:39.773Z,0
2018-07-12T01:02:47.855Z,0
2018-07-12T01:03:55.904Z,0
2018-07-12T01:05:03.940Z,0
2018-07-12T01:06:12.022Z,0
2018-07-12T01:07:20.107Z,0
2018-07-12T01:08:28.152Z,0
2018-07-12T01:09:36.220Z,0
2018-07-12T01:10:44.260Z,0
2018-07-12T01:11:52.349Z,0
2018-07-12T01:13:00.399Z,0
2018-07-12T01:14:08.471Z,0
2018-07-12T01:15:16.531Z,0
2018-07-12T01:16:24.590Z,0
2018-07-12T01:17:32.654Z,0
2018-07-12T01:18:40.715Z,0
2018-07-12T01:19:48.782Z,0
2018-07-12T01:20:56.861Z,0
2018-07-12T01:22:04.902Z,0
2018-07-12T01:23:12.966Z,0
2018-07-12T01:24:21.021Z,0
2018-07-12T01:25:29.094Z,0
2018-07-12T01:26:37.197Z,0
2018-07-12T01:27:45.214Z,0
2018-07-12T01:28:53.270Z,0
2018-07-12T01:30:01.338Z,0
2018-07-12T01:31:09.388Z,0
2018-07-12T01:32:17.466Z,0
2018-07-12T01:33:25.541Z,0
2018-07-12T01:34:33.563Z,0
2018-07-12T01:35:41.686Z,0
2018-07-12T01:36:49.715Z,0
2018-07-12T01:37:57.771Z,0
2018-07-12T01:39:05.841Z,0
2018-07-12T01:40:13.869Z,0
2018-07-12T01:41:21.964Z,0
2018-07-12T01:42:30.017Z,0
2018-07-12T01:43:38.083Z,0
2018-07-12T01:44:46.141Z,0
2018-07-12T01:45:54.171Z,0
2018-07-12T01:47:02.269Z,0
2018-07-12T01:48:10.335Z,0
2018-07-12T01:49:18.396Z,0
2018-07-12T01:50:26.449Z,0
2018-07-12T01:51:34.511Z,0
2018-07-12T01:52:42.573Z,0
2018-07-12T01:53:50.640Z,0
2018-07-12T01:54:58.701Z,0
2018-07-12T01:56:06.766Z,0
2018-07-12T01:57:14.834Z,0
2018-07-12T01:58:22.890Z,0
2018-07-12T01:59:30.955Z,0
2018-07-12T02:00:39.083Z,0
2018-07-12T02:01:47.089Z,0
2018-07-12T02:02:55.143Z,0
2018-07-12T02:04:03.204Z,0
2018-07-12T02:05:11.275Z,0
2018-07-12T02:06:19.334Z,0
2018-07-12T02:07:27.646Z,0
2018-07-12T02:08:35.470Z,0
2018-07-12T02:09:43.508Z,0
2018-07-12T02:10:51.618Z,0
2018-07-12T02:11:59.681Z,0
2018-07-12T02:13:07.749Z,0
2018-07-12T02:14:15.814Z,0
2018-07-12T02:15:23.857Z,0
2018-07-12T02:16:31.947Z,0
2018-07-12T02:17:40.013Z,0
2018-07-12T02:18:48.074Z,0
2018-07-12T02:19:56.160Z,0
2018-07-12T02:21:04.168Z,0
2018-07-12T02:22:12.273Z,0
2018-07-12T02:23:20.319Z,0
2018-07-12T02:24:28.404Z,0
2018-07-12T02:25:36.472Z,0
2018-07-12T02:26:44.501Z,0
2018-07-12T02:27:52.601Z,0
2018-07-12T02:29:00.649Z,0
2018-07-12T02:30:08.704Z,0
2018-07-12T02:31:16.767Z,0
2018-07-12T02:32:24.840Z,0
2018-07-12T02:33:32.909Z,0
2018-07-12T02:34:40.971Z,0
2018-07-12T02:35:49.041Z,0
2018-07-12T02:36:57.096Z,0
2018-07-12T02:38:05.156Z,0
2018-07-12T02:39:13.216Z,0
2018-07-12T02:40:21.319Z,0
2018-07-12T02:41:29.399Z,0
2018-07-12T02:42:37.411Z,0
2018-07-12T02:43:45.475Z,0
2018-07-12T02:44:53.534Z,0
2018-07-12T02:46:01.610Z,0
2018-07-12T02:47:09.671Z,0
2018-07-12T02:48:17.728Z,0
2018-07-12T02:49:25.786Z,0
2018-07-12T02:50:33.829Z,0
2018-07-12T02:51:41.918Z,0
2018-07-12T02:52:49.990Z,0
2018-07-12T02:53:58.048Z,0
2018-07-12T02:55:06.123Z,0
2018-07-12T02:56:14.157Z,0
2018-07-12T02:57:22.239Z,0
2018-07-12T02:58:30.296Z,0
2018-07-12T02:59:38.368Z,0
2018-07-12T03:00:46.430Z,0
2018-07-12T03:01:54.485Z,0
2018-07-12T03:03:02.553Z,0
2018-07-12T03:04:10.627Z,0
2018-07-12T03:05:18.698Z,0
2018-07-12T03:06:26.744Z,0
2018-07-12T03:07:34.835Z,0
2018-07-12T03:08:42.883Z,0
2018-07-12T03:09:50.954Z,0
2018-07-12T03:10:59.012Z,0
2018-07-12T03:12:07.089Z,0
2018-07-12T03:13:15.127Z,0
2018-07-12T03:14:23.195Z,0
2018-07-12T03:15:31.250Z,0
2018-07-12T03:16:39.328Z,0
2018-07-12T03:17:47.374Z,0
2018-07-12T03:18:55.450Z,0
2018-07-12T03:20:03.549Z,0
2018-07-12T03:21:11.562Z,0
2018-07-12T03:22:19.639Z,0
2018-07-12T03:23:27.707Z,0
2018-07-12T03:24:35.773Z,0
2018-07-12T03:25:43.803Z,0
2018-07-12T03:26:51.899Z,0
2018-07-12T03:27:59.971Z,0
2018-07-12T03:29:08.036Z,0
2018-07-12T03:30:16.081Z,5
2018-07-12T03:31:24.123Z,5
2018-07-12T03:32:32.213Z,5
2018-07-12T03:33:40.281Z,5
2018-07-12T03:34:48.335Z,5
2018-07-12T03:35:56.412Z,5
2018-07-12T03:37:04.492Z,5
2018-07-12T03:38:12.537Z,10
2018-07-12T03:39:20.589Z,10
2018-07-12T03:40:28.694Z,10
2018-07-12T03:41:36.719Z,10
2018-07-12T03:42:44.772Z,10
2018-07-12T03:43:52.828Z,10
2018-07-12T03:45:00.901Z,15
2018-07-12T03:46:08.970Z,15
2018-07-12T03:47:17.022Z,15
2018-07-12T03:48:25.088Z,15
2018-07-12T03:49:33.337Z,20
2018-07-12T03:50:41.426Z,20
2018-07-12T03:51:49.467Z,20
2018-07-12T03:52:57.539Z,20
2018-07-12T03:54:05.597Z,25
2018-07-12T03:55:13.637Z,25
2018-07-12T03:56:21.723Z,25
2018-07-12T03:57:29.781Z,25
2018-07-12T03:58:37.849Z,30
2018-07-12T03:59:45.920Z,30
2018-07-12T04:00:53.940Z,30
2018-07-12T04:02:02.033Z,30
2018-07-12T04:03:10.096Z,35
2018-07-12T04:04:18.159Z,35
2018-07-12T04:05:26.218Z,35
2018-07-12T04:06:34.267Z,40
2018-07-12T04:07:42.342Z,40
2018-07-12T04:08:50.416Z,40
2018-07-12T04:09:58.471Z,40
2018-07-12T04:11:06.536Z,45
2018-07-12T04:12:14.591Z,45
2018-07-12T04:13:22.920Z,45
2018-07-12T04:14:30.714Z,50
2018-07-12T04:15:39.118Z,50
2018-07-12T04:16:46.838Z,50
2018-07-12T04:17:54.917Z,50
2018-07-12T04:19:02.959Z,55
2018-07-12T04:20:11.040Z,55
2018-07-12T04:21:19.086Z,55
2018-07-12T04:22:27.208Z,55
2018-07-12T04:23:35.237Z,60
2018-07-12T04:24:43.276Z,60
2018-07-12T04:25:51.335Z,60
2018-07-12T04:26:59.412Z,60
2018-07-12T04:28:07.473Z,65
2018-07-12T04:29:15.535Z,65
2018-07-12T04:30:23.562Z,65
2018-07-12T04:31:31.652Z,65
2018-07-12T04:32:39.739Z,70
2018-07-12T04:33:47.784Z,70
2018-07-12T04:34:55.849Z,70
2018-07-12T04:36:03.879Z,70
2018-07-12T04:37:11.976Z,75
2018-07-12T04:38:20.031Z,75
2018-07-12T04:39:28.101Z,75
2018-07-12T04:40:36.167Z,75
2018-07-12T04:41:44.200Z,80
2018-07-12T04:42:52.825Z,80
2018-07-12T04:44:00.494Z,80
2018-07-12T04:45:08.407Z,80
2018-07-12T04:46:16.482Z,85
2018-07-12T04:47:24.531Z,85
2018-07-12T04:48:32.606Z,85
2018-07-12T04:49:40.781Z,85
2018-07-12T04:50:48.737Z,90
2018-07-12T04:51:56.789Z,90
2018-07-12T04:53:04.867Z,90
2018-07-12T04:54:12.922Z,90
2018-07-12T04:55:21.178Z,90
2018-07-12T04:56:29.056Z,95
2018-07-12T04:57:37.102Z,95
2018-07-12T04:58:45.195Z,95
2018-07-12T04:59:53.237Z,95
2018-07-12T05:01:01.298Z,100
2018-07-12T05:02:09.359Z,100
2018-07-12T05:03:17.415Z,100
2018-07-12T05:04:25.487Z,100
2018-07-12T05:05:33.541Z,105
2018-07-12T05:06:43.027Z,105
2018-07-12T05:07:52.712Z,105
2018-07-12T05:08:57.962Z,110
2018-07-12T05:10:05.803Z,115
2018-07-12T05:11:13.836Z,170
2018-07-12T05:12:21.984Z,400
2018-07-12T05:13:30.060Z,395
2018-07-12T05:14:38.043Z,210
2018-07-12T05:15:46.144Z,175
2018-07-12T05:16:54.167Z,120
2018-07-12T05:18:02.253Z,120
2018-07-12T05:19:13.329Z,120
2018-07-12T05:20:18.372Z,120
2018-07-12T05:21:26.441Z,120
2018-07-12T05:22:34.711Z,120
2018-07-12T05:23:42.568Z,125
2018-07-12T05:24:50.632Z,125
2018-07-12T05:25:58.701Z,125
2018-07-12T05:27:06.759Z,125
2018-07-12T05:28:14.827Z,130
2018-07-12T05:29:22.893Z,130
2018-07-12T05:30:30.953Z,130
2018-07-12T05:31:39.261Z,130
2018-07-12T05:32:47.070Z,130
2018-07-12T05:33:55.152Z,135
2018-07-12T05:35:03.219Z,135
2018-07-12T05:36:11.263Z,135
2018-07-12T05:37:19.333Z,140
2018-07-12T05:38:27.404Z,140
2018-07-12T05:39:35.460Z,140
2018-07-12T05:40:43.516Z,140
2018-07-12T05:41:51.601Z,140
2018-07-12T05:42:59.673Z,140
2018-07-12T05:44:07.734Z,145
2018-07-12T05:45:15.791Z,145
2018-07-12T05:46:23.820Z,145
2018-07-12T05:47:31.915Z,150
2018-07-12T05:48:39.991Z,150
2018-07-12T05:49:48.048Z,150
2018-07-12T05:50:56.122Z,155
2018-07-12T05:52:04.145Z,155
2018-07-12T05:53:12.254Z,155
2018-07-12T05:54:20.311Z,160
2018-07-12T05:55:28.364Z,160
2018-07-12T05:56:36.436Z,160
2018-07-12T05:57:44.509Z,160
2018-07-12T05:58:52.569Z,160
2018-07-12T06:00:00.619Z,160
2018-07-12T06:01:08.697Z,160
2018-07-12T06:02:16.754Z,160
2018-07-12T06:03:24.824Z,160
2018-07-12T06:04:32.892Z,165
2018-07-12T06:05:40.961Z,165
2018-07-12T06:06:49.035Z,165
2018-07-12T06:07:57.129Z,165
2018-07-12T06:09:05.148Z,165
2018-07-12T06:10:13.215Z,165
2018-07-12T06:11:21.289Z,170
2018-07-12T06:12:29.353Z,170
2018-07-12T06:13:37.419Z,170
2018-07-12T06:14:45.479Z,175
2018-07-12T06:15:53.542Z,180
2018-07-12T06:17:01.632Z,180
2018-07-12T06:18:09.693Z,180
2018-07-12T06:19:17.754Z,180
2018-07-12T06:20:25.815Z,180
2018-07-12T06:21:33.852Z,180
2018-07-12T06:22:41.947Z,185
2018-07-12T06:23:50.017Z,185
2018-07-12T06:24:58.084Z,185
2018-07-12T06:26:06.157Z,185
2018-07-12T06:27:14.183Z,190
2018-07-12T06:28:22.291Z,190
2018-07-12T06:29:30.346Z,190
2018-07-12T06:30:38.414Z,195
2018-07-12T06:31:46.476Z,195
2018-07-12T06:32:54.532Z,195
2018-07-12T06:34:02.614Z,200
2018-07-12T06:35:10.684Z,200
2018-07-12T06:36:18.743Z,205
2018-07-12T06:37:26.800Z,205
2018-07-12T06:38:34.871Z,205
2018-07-12T06:39:42.935Z,210
2018-07-12T06:40:51.002Z,210
2018-07-12T06:41:59.070Z,210
2018-07-12T06:43:07.151Z,210
2018-07-12T06:44:15.212Z,215
2018-07-12T06:45:23.276Z,215
2018-07-12T06:46:31.340Z,215
2018-07-12T06:47:39.410Z,215
2018-07-12T06:48:47.474Z,215
2018-07-12T06:49:55.551Z,220
2018-07-12T06:51:03.587Z,220
2018-07-12T06:52:11.687Z,220
2018-07-12T06:53:19.751Z,225
2018-07-12T06:54:27.821Z,225
2018-07-12T06:55:35.889Z,230
2018-07-12T06:56:43.941Z,235
2018-07-12T06:57:52.022Z,240
2018-07-12T06:59:00.081Z,240
2018-07-12T07:00:08.197Z,240
2018-07-12T07:01:16.220Z,245
2018-07-12T07:02:24.256Z,250
2018-07-12T07:03:32.362Z,255
2018-07-12T07:04:40.421Z,265
2018-07-12T07:05:48.493Z,305
2018-07-12T07:06:56.550Z,340
2018-07-12T07:09:12.695Z,350
2018-07-12T07:10:21.786Z,320
2018-07-12T07:11:29.823Z,325
2018-07-12T07:12:37.901Z,365
2018-07-12T07:13:45.969Z,365
2018-07-12T07:14:54.043Z,510
2018-07-12T07:16:02.102Z,440
2018-07-12T07:17:10.358Z,810
2018-07-12T07:18:18.426Z,580
2018-07-12T07:19:28.538Z,650
2018-07-12T07:20:35.974Z,985
2018-07-12T07:21:45.099Z,645
2018-07-12T07:22:52.120Z,740
2018-07-12T07:24:00.177Z,935
2018-07-12T07:25:14.344Z,910
2018-07-12T07:26:32.086Z,930
2018-07-12T07:27:27.426Z,620
2018-07-12T07:28:35.494Z,740
2018-07-12T07:29:46.595Z,885
2018-07-12T07:30:59.111Z,995
2018-07-12T07:32:11.006Z,1310
2018-07-12T07:33:20.281Z,905
2018-07-12T07:34:29.551Z,545
2018-07-12T07:35:39.866Z,675
2018-07-12T07:36:47.923Z,1295
2018-07-12T07:37:55.991Z,1835
2018-07-12T07:39:04.027Z,1950
2018-07-12T07:40:12.128Z,1810
2018-07-12T07:41:20.220Z,1810
2018-07-12T07:42:28.281Z,1955
2018-07-12T07:43:36.363Z,2025
2018-07-12T07:44:44.414Z,2245
2018-07-12T07:45:52.509Z,1975
2018-07-12T07:47:00.577Z,2155
2018-07-12T07:48:08.671Z,2125
2018-07-12T07:49:16.817Z,1965
2018-07-12T07:50:24.828Z,2155
2018-07-12T07:51:32.897Z,2055
2018-07-12T07:52:40.973Z,2065
2018-07-12T07:53:49.055Z,2025
2018-07-12T07:54:57.135Z,2085
2018-07-12T07:56:05.221Z,2165
2018-07-12T07:57:13.330Z,2100
2018-07-12T07:58:21.383Z,2280
2018-07-12T07:59:29.466Z,2285
2018-07-12T08:00:37.533Z,2345
2018-07-12T08:01:45.616Z,2430
2018-07-12T08:02:53.668Z,2345
2018-07-12T08:04:01.788Z,2385
2018-07-12T08:05:09.871Z,2250
2018-07-12T08:06:17.940Z,2220
2018-07-12T08:07:26.025Z,2320
2018-07-12T08:08:34.082Z,2325
2018-07-12T08:09:42.185Z,2335
2018-07-12T08:10:50.277Z,2425
2018-07-12T08:11:58.360Z,2235
2018-07-12T08:13:06.477Z,2145
2018-07-12T08:14:14.501Z,2285
2018-07-12T08:15:22.597Z,2285
2018-07-12T08:16:30.681Z,2130
2018-07-12T08:17:38.759Z,2190
2018-07-12T08:18:46.845Z,2275
2018-07-12T08:19:54.928Z,2335
2018-07-12T08:21:03.016Z,2340
2018-07-12T08:22:11.094Z,2485
2018-07-12T08:23:19.187Z,2435
2018-07-12T08:24:27.259Z,2450
2018-07-12T08:25:35.351Z,2575
2018-07-12T08:26:47.319Z,2465
2018-07-12T08:27:54.302Z,2410
2018-07-12T08:29:02.505Z,2435
2018-07-12T08:30:10.702Z,625
2018-07-12T08:31:18.854Z,2300
2018-07-12T08:32:26.875Z,2470
2018-07-12T08:33:34.945Z,2440
2018-07-12T08:34:43.043Z,2485
2018-07-12T08:35:51.117Z,2390
2018-07-12T08:36:59.279Z,2520
2018-07-12T08:38:07.293Z,2435
2018-07-12T08:39:15.365Z,2135
2018-07-12T08:40:23.431Z,1275
2018-07-12T08:41:31.548Z,2830
2018-07-12T08:42:39.643Z,2775
2018-07-12T08:43:47.700Z,2580
2018-07-12T08:44:55.782Z,2020
2018-07-12T08:46:03.849Z,2570
2018-07-12T08:47:11.952Z,2660
2018-07-12T08:48:20.090Z,1880
2018-07-12T08:49:28.134Z,2665
2018-07-12T08:50:36.263Z,890
2018-07-12T08:51:44.322Z,1090
2018-07-12T08:52:52.416Z,835
2018-07-12T08:54:00.455Z,740
2018-07-12T08:55:08.572Z,600
2018-07-12T08:56:16.654Z,1485
2018-07-12T08:57:24.751Z,635
2018-07-12T08:58:32.812Z,810
2018-07-12T08:59:40.905Z,1080
2018-07-12T09:00:48.969Z,940
2018-07-12T09:01:57.100Z,600
2018-07-12T09:03:05.224Z,630
2018-07-12T09:04:13.221Z,620
2018-07-12T09:05:21.273Z,1075
2018-07-12T09:06:29.376Z,530
2018-07-12T09:07:37.440Z,490
2018-07-12T09:08:45.535Z,1245
2018-07-12T09:09:53.590Z,2695
2018-07-12T09:11:01.729Z,2795
2018-07-12T09:12:09.792Z,2850
2018-07-12T09:13:17.869Z,2705
2018-07-12T09:14:25.942Z,2670
2018-07-12T09:15:33.994Z,2685
2018-07-12T09:16:42.089Z,2680
2018-07-12T09:17:50.211Z,1785
2018-07-12T09:18:58.503Z,2770
2018-07-12T09:20:06.518Z,2845
2018-07-12T09:21:14.608Z,2930
2018-07-12T09:22:22.711Z,3000
2018-07-12T09:23:30.792Z,2630
2018-07-12T09:24:38.842Z,1335
2018-07-12T09:25:46.939Z,645
2018-07-12T09:26:55.626Z,695
2018-07-12T09:28:03.103Z,680
2018-07-12T09:29:11.207Z,655
2018-07-12T09:30:19.293Z,665
2018-07-12T09:31:27.381Z,715
2018-07-12T09:32:35.425Z,675
2018-07-12T09:33:43.488Z,750
2018-07-12T09:34:51.622Z,725
2018-07-12T09:35:59.688Z,685
2018-07-12T09:37:07.884Z,685
2018-07-12T09:38:15.818Z,635
2018-07-12T09:39:23.884Z,550
2018-07-12T09:40:32.207Z,500
2018-07-12T09:41:40.269Z,510
2018-07-12T09:42:48.362Z,545
2018-07-12T09:43:56.408Z,580
2018-07-12T09:45:05.095Z,580
2018-07-12T09:46:13.195Z,565
2018-07-12T09:47:22.395Z,565
2018-07-12T09:48:29.320Z,555
2018-07-12T09:49:37.337Z,540
2018-07-12T09:50:45.476Z,530
2018-07-12T09:51:52.964Z,525
2018-07-12T09:53:01.050Z,525
2018-07-12T09:54:09.150Z,550
2018-07-12T09:55:17.251Z,600
2018-07-12T09:56:25.309Z,655
2018-07-12T09:57:33.328Z,700
2018-07-12T09:58:41.439Z,705
2018-07-12T09:59:49.505Z,700
2018-07-12T10:00:57.580Z,665
2018-07-12T10:02:05.649Z,605
2018-07-12T10:03:13.706Z,525
2018-07-12T10:04:21.800Z,505
2018-07-12T10:05:29.872Z,515
2018-07-12T10:06:37.968Z,520
2018-07-12T10:07:46.025Z,530
2018-07-12T10:08:54.057Z,535
2018-07-12T10:10:02.170Z,530
2018-07-12T10:11:10.239Z,525
2018-07-12T10:12:18.357Z,525
2018-07-12T10:13:26.409Z,520
2018-07-12T10:14:34.476Z,510
2018-07-12T10:15:42.578Z,500
2018-07-12T10:16:50.672Z,505
2018-07-12T10:17:58.716Z,510
2018-07-12T10:19:06.779Z,520
2018-07-12T10:20:14.863Z,530
2018-07-12T10:21:22.951Z,535
2018-07-12T10:22:31.029Z,515
2018-07-12T10:23:39.104Z,510
2018-07-12T10:24:47.180Z,515
2018-07-12T10:25:55.248Z,510
2018-07-12T10:27:03.290Z,510
2018-07-12T10:28:11.386Z,510
2018-07-12T10:29:19.438Z,530
2018-07-12T10:30:27.566Z,560
2018-07-12T10:31:35.606Z,575
2018-07-12T10:32:43.662Z,585
2018-07-12T10:33:51.771Z,620
2018-07-12T10:34:59.834Z,650
2018-07-12T10:36:07.920Z,685
2018-07-12T10:37:16.244Z,680
2018-07-12T10:38:24.023Z,670
2018-07-12T10:39:32.143Z,635
2018-07-12T10:40:40.212Z,595
2018-07-12T10:41:48.263Z,580
2018-07-12T10:42:56.361Z,560
2018-07-12T10:44:04.430Z,560
2018-07-12T10:45:12.502Z,560
2018-07-12T10:46:20.555Z,555
2018-07-12T10:47:28.692Z,560
2018-07-12T10:48:36.722Z,555
2018-07-12T10:49:44.806Z,550
2018-07-12T10:50:52.860Z,555
2018-07-12T10:52:00.939Z,560
2018-07-12T10:53:09.033Z,560
2018-07-12T10:54:17.121Z,565
2018-07-12T10:55:25.186Z,580
2018-07-12T10:56:33.271Z,580
2018-07-12T10:57:41.317Z,575
2018-07-12T10:58:49.456Z,600
2018-07-12T10:59:57.472Z,595
2018-07-12T11:01:05.577Z,590
2018-07-12T11:02:13.614Z,590
2018-07-12T11:03:21.689Z,565
2018-07-12T11:04:29.822Z,565
2018-07-12T11:05:37.859Z,560
2018-07-12T11:06:45.935Z,535
2018-07-12T11:07:53.970Z,535
2018-07-12T11:09:02.104Z,525
2018-07-12T11:10:10.158Z,525
2018-07-12T11:11:18.254Z,530
2018-07-12T11:12:26.299Z,575
2018-07-12T11:13:34.354Z,645
2018-07-12T11:14:42.460Z,675
2018-07-12T11:15:50.630Z,700
2018-07-12T11:16:58.586Z,670
2018-07-12T11:18:06.684Z,650
2018-07-12T11:19:14.766Z,585
2018-07-12T11:20:22.844Z,515
2018-07-12T11:21:30.891Z,465
2018-07-12T11:22:38.962Z,470
2018-07-12T11:23:47.085Z,460
2018-07-12T11:24:55.126Z,440
2018-07-12T11:26:03.389Z,425
2018-07-12T11:27:11.477Z,410
2018-07-12T11:28:19.542Z,400
2018-07-12T11:29:27.616Z,395
2018-07-12T11:30:35.686Z,390
2018-07-12T11:31:43.738Z,370
2018-07-12T11:32:51.836Z,360
2018-07-12T11:33:59.920Z,355
2018-07-12T11:35:07.972Z,365
2018-07-12T11:36:16.100Z,385
2018-07-12T11:37:24.132Z,410
2018-07-12T11:38:32.203Z,430
2018-07-12T11:39:40.281Z,465
2018-07-12T11:40:48.344Z,490
2018-07-12T11:41:56.472Z,505
2018-07-12T11:43:04.512Z,510
2018-07-12T11:44:12.577Z,545
2018-07-12T11:45:20.657Z,565
2018-07-12T11:46:28.763Z,580
2018-07-12T11:47:36.933Z,590
2018-07-12T11:48:44.879Z,610
2018-07-12T11:49:53.000Z,605
2018-07-12T11:51:01.014Z,590
2018-07-12T11:52:09.101Z,580
2018-07-12T11:53:17.155Z,570
2018-07-12T11:54:25.259Z,560
2018-07-12T11:55:33.334Z,560
2018-07-12T11:56:41.403Z,560
2018-07-12T11:57:49.472Z,570
2018-07-12T11:58:57.551Z,590
2018-07-12T12:00:05.615Z,590
2018-07-12T12:01:13.695Z,600
2018-07-12T12:02:21.773Z,610
2018-07-12T12:03:29.829Z,605
2018-07-12T12:04:37.905Z,595
2018-07-12T12:05:45.986Z,590
2018-07-12T12:06:54.063Z,585
2018-07-12T12:08:02.139Z,570
2018-07-12T12:09:10.212Z,570
2018-07-12T12:10:18.363Z,580
2018-07-12T12:11:26.376Z,595
2018-07-12T12:12:34.413Z,600
2018-07-12T12:13:42.492Z,625
2018-07-12T12:14:50.609Z,615
2018-07-12T12:15:58.673Z,625
2018-07-12T12:17:06.732Z,635
2018-07-12T12:18:14.802Z,635
2018-07-12T12:19:23.093Z,650
2018-07-12T12:20:31.198Z,680
2018-07-12T12:21:39.352Z,680
2018-07-12T12:22:47.288Z,675
2018-07-12T12:23:55.377Z,665
2018-07-12T12:25:03.442Z,665
2018-07-12T12:26:11.570Z,655
2018-07-12T12:27:19.616Z,640
2018-07-12T12:28:27.658Z,630
2018-07-12T12:29:35.766Z,635
2018-07-12T12:30:43.791Z,620
2018-07-12T12:31:51.899Z,615
2018-07-12T12:32:59.958Z,635
2018-07-12T12:34:08.083Z,610
2018-07-12T12:35:16.132Z,580
2018-07-12T12:36:24.193Z,530
2018-07-12T12:37:32.273Z,470
2018-07-12T12:38:40.352Z,440
2018-07-12T12:39:48.429Z,395
2018-07-12T12:40:56.499Z,345
2018-07-12T12:42:04.590Z,295
2018-07-12T12:43:12.661Z,265
2018-07-12T12:44:20.735Z,250
2018-07-12T12:45:28.809Z,240
2018-07-12T12:46:36.861Z,230
2018-07-12T12:47:44.931Z,250
2018-07-12T12:48:53.034Z,270
2018-07-12T12:50:01.093Z,275
2018-07-12T12:51:09.191Z,275
2018-07-12T12:52:17.238Z,270
2018-07-12T12:53:25.327Z,280
2018-07-12T12:54:33.367Z,280
2018-07-12T12:55:41.463Z,295
2018-07-12T12:56:49.563Z,310
2018-07-12T12:57:57.649Z,315
2018-07-12T12:59:05.721Z,315
2018-07-12T13:00:13.920Z,315
2018-07-12T13:01:21.866Z,320
2018-07-12T13:02:29.940Z,340
2018-07-12T13:03:38.030Z,345
2018-07-12T13:04:46.076Z,365
2018-07-12T13:05:54.107Z,360
2018-07-12T13:07:02.283Z,355
2018-07-12T13:08:10.345Z,370
2018-07-12T13:09:18.391Z,425
2018-07-12T13:10:26.477Z,440
2018-07-12T13:11:34.522Z,455
2018-07-12T13:12:42.599Z,465
2018-07-12T13:13:50.664Z,510
2018-07-12T13:14:58.764Z,520
2018-07-12T13:16:06.836Z,535
2018-07-12T13:17:14.978Z,530
2018-07-12T13:18:22.970Z,510
2018-07-12T13:19:31.042Z,485
2018-07-12T13:20:39.119Z,480
2018-07-12T13:21:47.192Z,475
2018-07-12T13:22:55.278Z,510
2018-07-12T13:24:03.317Z,540
2018-07-12T13:25:11.438Z,560
2018-07-12T13:26:19.502Z,525
2018-07-12T13:27:27.537Z,500
2018-07-12T13:28:35.629Z,445
2018-07-12T13:29:43.701Z,395
2018-07-12T13:30:51.778Z,365
2018-07-12T13:31:59.927Z,360
2018-07-12T13:33:07.950Z,360
2018-07-12T13:34:16.026Z,365
2018-07-12T13:35:24.078Z,385
2018-07-12T13:36:32.182Z,380
2018-07-12T13:37:40.240Z,385
2018-07-12T13:38:48.317Z,385
2018-07-12T13:39:56.408Z,405
2018-07-12T13:41:04.507Z,445
2018-07-12T13:42:12.542Z,465
2018-07-12T13:43:20.611Z,465
2018-07-12T13:44:28.703Z,470
2018-07-12T13:45:36.766Z,440
2018-07-12T13:46:44.913Z,435
2018-07-12T13:47:52.898Z,425
2018-07-12T13:49:01.003Z,395
2018-07-12T13:50:09.051Z,395
2018-07-12T13:51:17.135Z,400
2018-07-12T13:52:25.223Z,390
2018-07-12T13:53:33.281Z,395
2018-07-12T13:54:41.382Z,400
2018-07-12T13:55:49.435Z,420
2018-07-12T13:56:57.519Z,450
2018-07-12T13:58:05.623Z,440
2018-07-12T13:59:13.636Z,375
2018-07-12T14:00:21.732Z,340
2018-07-12T14:01:30.853Z,325
2018-07-12T14:02:37.881Z,295
2018-07-12T14:03:45.957Z,275
2018-07-12T14:04:54.054Z,255
2018-07-12T14:06:02.113Z,245
2018-07-12T14:07:10.183Z,260
2018-07-12T14:08:18.270Z,300
2018-07-12T14:09:26.318Z,325
2018-07-12T14:10:34.393Z,360
2018-07-12T14:11:42.485Z,390
2018-07-12T14:12:50.553Z,380
2018-07-12T14:13:58.610Z,400
2018-07-12T14:15:06.720Z,420
2018-07-12T14:16:14.756Z,420
2018-07-12T14:17:22.902Z,405
2018-07-12T14:18:30.911Z,395
2018-07-12T14:19:38.977Z,385
2018-07-12T14:20:47.042Z,370
2018-07-12T14:21:55.264Z,370
2018-07-12T14:23:03.202Z,355
2018-07-12T14:24:11.273Z,340
2018-07-12T14:25:19.350Z,325
2018-07-12T14:26:27.458Z,305
2018-07-12T14:27:35.497Z,315
2018-07-12T14:28:43.547Z,335
2018-07-12T14:29:51.673Z,340
2018-07-12T14:30:59.726Z,340
2018-07-12T14:32:07.802Z,330
2018-07-12T14:33:15.862Z,315
2018-07-12T14:34:23.912Z,320
2018-07-12T14:35:32.017Z,330
2018-07-12T14:36:40.082Z,335
2018-07-12T14:37:48.150Z,345
2018-07-12T14:38:56.236Z,335
2018-07-12T14:40:04.315Z,345
2018-07-12T14:41:12.389Z,360
2018-07-12T14:42:20.463Z,385
2018-07-12T14:43:28.533Z,395
2018-07-12T14:44:36.601Z,415
2018-07-12T14:45:44.675Z,400
2018-07-12T14:46:52.748Z,380
2018-07-12T14:48:00.807Z,370
2018-07-12T14:49:08.895Z,340
2018-07-12T14:50:17.058Z,355
2018-07-12T14:51:25.056Z,400
2018-07-12T14:52:33.136Z,450
2018-07-12T14:53:41.197Z,435
2018-07-12T14:54:49.270Z,380
2018-07-12T14:55:57.340Z,325
2018-07-12T14:57:05.394Z,285
2018-07-12T14:58:13.465Z,275
2018-07-12T14:59:21.560Z,255
2018-07-12T15:00:29.641Z,235
2018-07-12T15:01:37.782Z,225
2018-07-12T15:02:45.860Z,235
2018-07-12T15:03:53.886Z,280
2018-07-12T15:05:01.919Z,310
2018-07-12T15:06:10.012Z,310
2018-07-12T15:07:18.081Z,310
2018-07-12T15:08:26.147Z,320
2018-07-12T15:09:34.309Z,325
2018-07-12T15:10:42.296Z,330
2018-07-12T15:11:50.395Z,330
2018-07-12T15:12:58.473Z,300
2018-07-12T15:14:06.514Z,290
2018-07-12T15:15:14.685Z,305
2018-07-12T15:16:22.687Z,310
2018-07-12T15:17:30.741Z,325
2018-07-12T15:18:38.829Z,340
2018-07-12T15:19:46.889Z,365
2018-07-12T15:20:55.006Z,385
2018-07-12T15:22:03.043Z,390
2018-07-12T15:23:11.086Z,385
2018-07-12T15:24:19.183Z,375
2018-07-12T15:25:27.246Z,350
2018-07-12T15:26:35.358Z,335
2018-07-12T15:27:43.420Z,335
2018-07-12T15:28:51.471Z,335
2018-07-12T15:29:59.568Z,340
2018-07-12T15:31:07.638Z,340
2018-07-12T15:32:15.717Z,335
2018-07-12T15:33:23.783Z,330
2018-07-12T15:34:31.858Z,320
2018-07-12T15:35:40.012Z,325
2018-07-12T15:36:47.977Z,340
2018-07-12T15:37:57.100Z,350
2018-07-12T15:39:04.096Z,350
2018-07-12T15:40:12.203Z,355
2018-07-12T15:41:20.273Z,350
2018-07-12T15:42:28.349Z,350
2018-07-12T15:43:36.433Z,350
2018-07-12T15:44:44.479Z,360
2018-07-12T15:45:52.559Z,390
2018-07-12T15:47:00.678Z,405
2018-07-12T15:48:08.724Z,390
2018-07-12T15:49:16.800Z,340
2018-07-12T15:50:24.856Z,315
2018-07-12T15:51:32.910Z,285
2018-07-12T15:52:41.013Z,270